sensor_id;sensor_type;location;lat;lon;timestamp;P1;durP1;ratioP1;P2;durP2;ratioP2
84738;SDS011;74969;44.836;-0.586;2024-03-08T00:02:23;2.43;;;1.60;;
84738;SDS011;74969;44.836;-0.586;2024-03-08T00:04:48;3.58;;;1.52;;
84738;SDS011;74969;44.836;-0.586;2024-03-08T00:07:14;4.20;;;2.38;;
84738;SDS011;74969;44.836;-0.586;2024-03-08T00:09:40;3.00;;;1.30;;
84738;SDS011;74969;44.836;-0.586;2024-03-08T00:12:06;5.93;;;1.92;;
84738;SDS011;74969;44.836;-0.586;2024-03-08T00:14:32;2.35;;;1.40;;
84738;SDS011;74969;44.836;-0.586;2024-03-08T00:16:58;4.03;;;1.63;;
84738;SDS011;74969;44.836;-0.586;2024-03-08T00:19:24;4.45;;;1.75;;
84738;SDS011;74969;44.836;-0.586;2024-03-08T00:21:49;3.43;;;1.70;;
84738;SDS011;74969;44.836;-0.586;2024-03-08T00:24:15;2.88;;;1.65;;
84738;SDS011;74969;44.836;-0.586;2024-03-08T00:26:41;3.03;;;1.50;;
84738;SDS011;74969;44.836;-0.586;2024-03-08T00:29:08;4.50;;;1.80;;
84738;SDS011;74969;44.836;-0.586;2024-03-08T00:31:34;2.83;;;1.73;;
84738;SDS011;74969;44.836;-0.586;2024-03-08T00:34:00;3.77;;;1.40;;
84738;SDS011;74969;44.836;-0.586;2024-03-08T00:36:26;3.58;;;1.70;;
84738;SDS011;74969;44.836;-0.586;2024-03-08T00:38:51;4.63;;;1.60;;
84738;SDS011;74969;44.836;-0.586;2024-03-08T00:41:17;5.50;;;1.83;;
84738;SDS011;74969;44.836;-0.586;2024-03-08T00:43:43;4.43;;;1.27;;
84738;SDS011;74969;44.836;-0.586;2024-03-08T00:46:09;5.13;;;1.57;;
84738;SDS011;74969;44.836;-0.586;2024-03-08T00:48:34;4.32;;;1.75;;
84738;SDS011;74969;44.836;-0.586;2024-03-08T00:51:01;3.35;;;1.42;;
84738;SDS011;74969;44.836;-0.586;2024-03-08T00:53:27;4.22;;;1.98;;
84738;SDS011;74969;44.836;-0.586;2024-03-08T00:55:52;3.67;;;1.60;;
84738;SDS011;74969;44.836;-0.586;2024-03-08T00:58:20;5.18;;;1.58;;
84738;SDS011;74969;44.836;-0.586;2024-03-08T01:00:46;2.45;;;1.45;;
84738;SDS011;74969;44.836;-0.586;2024-03-08T01:03:11;3.03;;;1.60;;
84738;SDS011;74969;44.836;-0.586;2024-03-08T01:05:37;5.85;;;1.77;;
84738;SDS011;74969;44.836;-0.586;2024-03-08T01:08:03;3.93;;;1.90;;
84738;SDS011;74969;44.836;-0.586;2024-03-08T01:10:30;6.15;;;2.05;;
84738;SDS011;74969;44.836;-0.586;2024-03-08T01:12:55;3.35;;;1.50;;
84738;SDS011;74969;44.836;-0.586;2024-03-08T01:15:22;4.75;;;1.45;;
84738;SDS011;74969;44.836;-0.586;2024-03-08T01:17:48;3.00;;;1.60;;
84738;SDS011;74969;44.836;-0.586;2024-03-08T01:20:15;4.32;;;1.80;;
84738;SDS011;74969;44.836;-0.586;2024-03-08T01:22:40;5.03;;;1.50;;
84738;SDS011;74969;44.836;-0.586;2024-03-08T01:25:06;7.38;;;1.58;;
84738;SDS011;74969;44.836;-0.586;2024-03-08T01:27:33;4.85;;;1.63;;
84738;SDS011;74969;44.836;-0.586;2024-03-08T01:30:00;3.53;;;1.23;;
84738;SDS011;74969;44.836;-0.586;2024-03-08T01:32:26;3.07;;;1.63;;
84738;SDS011;74969;44.836;-0.586;2024-03-08T01:34:51;5.05;;;1.65;;
84738;SDS011;74969;44.836;-0.586;2024-03-08T01:37:17;6.20;;;1.93;;
84738;SDS011;74969;44.836;-0.586;2024-03-08T01:39:43;4.20;;;1.70;;
84738;SDS011;74969;44.836;-0.586;2024-03-08T01:42:09;3.37;;;2.00;;
84738;SDS011;74969;44.836;-0.586;2024-03-08T01:44:37;4.60;;;1.67;;
84738;SDS011;74969;44.836;-0.586;2024-03-08T01:47:04;5.72;;;2.53;;
84738;SDS011;74969;44.836;-0.586;2024-03-08T01:49:30;3.97;;;1.92;;
84738;SDS011;74969;44.836;-0.586;2024-03-08T01:51:56;2.50;;;1.70;;
84738;SDS011;74969;44.836;-0.586;2024-03-08T01:54:22;6.03;;;1.60;;
84738;SDS011;74969;44.836;-0.586;2024-03-08T01:56:49;2.75;;;1.50;;
84738;SDS011;74969;44.836;-0.586;2024-03-08T01:59:15;2.28;;;1.40;;
84738;SDS011;74969;44.836;-0.586;2024-03-08T02:01:41;4.00;;;1.95;;
84738;SDS011;74969;44.836;-0.586;2024-03-08T02:04:07;4.00;;;1.67;;
84738;SDS011;74969;44.836;-0.586;2024-03-08T02:06:33;4.43;;;2.28;;
84738;SDS011;74969;44.836;-0.586;2024-03-08T02:08:59;6.37;;;2.30;;
84738;SDS011;74969;44.836;-0.586;2024-03-08T02:11:25;4.25;;;1.88;;
84738;SDS011;74969;44.836;-0.586;2024-03-08T02:13:51;4.07;;;2.45;;
84738;SDS011;74969;44.836;-0.586;2024-03-08T02:16:21;4.47;;;2.10;;
84738;SDS011;74969;44.836;-0.586;2024-03-08T02:18:47;5.45;;;1.85;;
84738;SDS011;74969;44.836;-0.586;2024-03-08T02:21:13;6.05;;;2.60;;
84738;SDS011;74969;44.836;-0.586;2024-03-08T02:23:43;3.55;;;2.10;;
84738;SDS011;74969;44.836;-0.586;2024-03-08T02:26:09;6.32;;;2.50;;
84738;SDS011;74969;44.836;-0.586;2024-03-08T02:28:35;4.22;;;2.28;;
84738;SDS011;74969;44.836;-0.586;2024-03-08T02:31:01;6.82;;;2.35;;
84738;SDS011;74969;44.836;-0.586;2024-03-08T02:33:27;3.60;;;2.38;;
84738;SDS011;74969;44.836;-0.586;2024-03-08T02:35:53;4.30;;;2.07;;
84738;SDS011;74969;44.836;-0.586;2024-03-08T02:38:21;4.10;;;2.63;;
84738;SDS011;74969;44.836;-0.586;2024-03-08T02:40:51;5.25;;;2.17;;
84738;SDS011;74969;44.836;-0.586;2024-03-08T02:43:18;3.42;;;1.55;;
84738;SDS011;74969;44.836;-0.586;2024-03-08T02:45:44;5.15;;;1.70;;
84738;SDS011;74969;44.836;-0.586;2024-03-08T02:48:10;5.27;;;1.90;;
84738;SDS011;74969;44.836;-0.586;2024-03-08T02:50:37;3.53;;;1.38;;
84738;SDS011;74969;44.836;-0.586;2024-03-08T02:53:07;3.80;;;1.60;;
84738;SDS011;74969;44.836;-0.586;2024-03-08T02:55:33;7.30;;;1.63;;
84738;SDS011;74969;44.836;-0.586;2024-03-08T02:58:01;3.00;;;1.85;;
84738;SDS011;74969;44.836;-0.586;2024-03-08T03:00:28;4.30;;;1.57;;
84738;SDS011;74969;44.836;-0.586;2024-03-08T03:02:55;2.45;;;1.20;;
84738;SDS011;74969;44.836;-0.586;2024-03-08T03:05:22;2.20;;;1.35;;
84738;SDS011;74969;44.836;-0.586;2024-03-08T03:07:49;3.80;;;1.40;;
84738;SDS011;74969;44.836;-0.586;2024-03-08T03:10:17;3.70;;;1.38;;
84738;SDS011;74969;44.836;-0.586;2024-03-08T03:12:44;2.83;;;1.20;;
84738;SDS011;74969;44.836;-0.586;2024-03-08T03:15:11;2.97;;;1.35;;
84738;SDS011;74969;44.836;-0.586;2024-03-08T03:17:38;5.32;;;1.67;;
84738;SDS011;74969;44.836;-0.586;2024-03-08T03:20:06;2.50;;;1.30;;
84738;SDS011;74969;44.836;-0.586;2024-03-08T03:22:38;3.45;;;1.40;;
84738;SDS011;74969;44.836;-0.586;2024-03-08T03:25:04;5.47;;;1.17;;
84738;SDS011;74969;44.836;-0.586;2024-03-08T03:27:31;4.57;;;1.45;;
84738;SDS011;74969;44.836;-0.586;2024-03-08T03:29:57;2.42;;;1.13;;
84738;SDS011;74969;44.836;-0.586;2024-03-08T03:32:23;5.20;;;1.40;;
84738;SDS011;74969;44.836;-0.586;2024-03-08T03:34:49;3.50;;;1.17;;
84738;SDS011;74969;44.836;-0.586;2024-03-08T03:37:21;3.85;;;1.50;;
84738;SDS011;74969;44.836;-0.586;2024-03-08T03:39:46;5.20;;;1.63;;
84738;SDS011;74969;44.836;-0.586;2024-03-08T03:42:18;3.90;;;1.30;;
84738;SDS011;74969;44.836;-0.586;2024-03-08T03:44:47;5.50;;;1.83;;
84738;SDS011;74969;44.836;-0.586;2024-03-08T03:47:14;4.55;;;2.35;;
84738;SDS011;74969;44.836;-0.586;2024-03-08T03:49:43;3.83;;;1.45;;
84738;SDS011;74969;44.836;-0.586;2024-03-08T03:52:10;6.00;;;1.80;;
84738;SDS011;74969;44.836;-0.586;2024-03-08T03:54:36;5.88;;;2.05;;
84738;SDS011;74969;44.836;-0.586;2024-03-08T03:57:02;4.40;;;1.60;;
84738;SDS011;74969;44.836;-0.586;2024-03-08T03:59:28;4.00;;;1.63;;
84738;SDS011;74969;44.836;-0.586;2024-03-08T04:01:53;3.95;;;1.73;;
84738;SDS011;74969;44.836;-0.586;2024-03-08T04:04:22;4.60;;;2.23;;
84738;SDS011;74969;44.836;-0.586;2024-03-08T04:06:49;3.20;;;1.55;;
84738;SDS011;74969;44.836;-0.586;2024-03-08T04:09:16;2.80;;;1.80;;
84738;SDS011;74969;44.836;-0.586;2024-03-08T04:11:44;4.18;;;1.73;;
84738;SDS011;74969;44.836;-0.586;2024-03-08T04:14:10;3.63;;;1.67;;
84738;SDS011;74969;44.836;-0.586;2024-03-08T04:16:35;6.18;;;1.50;;
84738;SDS011;74969;44.836;-0.586;2024-03-08T04:19:02;4.90;;;1.45;;
84738;SDS011;74969;44.836;-0.586;2024-03-08T04:21:32;5.43;;;1.80;;
84738;SDS011;74969;44.836;-0.586;2024-03-08T04:23:58;8.95;;;1.45;;
84738;SDS011;74969;44.836;-0.586;2024-03-08T04:26:23;4.88;;;1.88;;
84738;SDS011;74969;44.836;-0.586;2024-03-08T04:28:51;4.82;;;1.80;;
84738;SDS011;74969;44.836;-0.586;2024-03-08T04:31:16;6.07;;;2.50;;
84738;SDS011;74969;44.836;-0.586;2024-03-08T04:33:42;2.92;;;1.20;;
84738;SDS011;74969;44.836;-0.586;2024-03-08T04:36:09;4.37;;;1.40;;
84738;SDS011;74969;44.836;-0.586;2024-03-08T04:38:38;4.63;;;1.70;;
84738;SDS011;74969;44.836;-0.586;2024-03-08T04:41:07;4.25;;;1.67;;
84738;SDS011;74969;44.836;-0.586;2024-03-08T04:43:34;4.43;;;1.85;;
84738;SDS011;74969;44.836;-0.586;2024-03-08T04:46:00;3.65;;;1.85;;
84738;SDS011;74969;44.836;-0.586;2024-03-08T04:48:28;6.28;;;1.83;;
84738;SDS011;74969;44.836;-0.586;2024-03-08T04:50:54;7.20;;;2.63;;
84738;SDS011;74969;44.836;-0.586;2024-03-08T04:53:20;3.25;;;1.50;;
84738;SDS011;74969;44.836;-0.586;2024-03-08T04:55:46;3.03;;;1.52;;
84738;SDS011;74969;44.836;-0.586;2024-03-08T04:58:12;3.88;;;1.45;;
84738;SDS011;74969;44.836;-0.586;2024-03-08T05:00:38;4.97;;;1.90;;
84738;SDS011;74969;44.836;-0.586;2024-03-08T05:03:04;3.97;;;1.83;;
84738;SDS011;74969;44.836;-0.586;2024-03-08T05:05:30;3.00;;;1.50;;
84738;SDS011;74969;44.836;-0.586;2024-03-08T05:07:56;4.65;;;1.58;;
84738;SDS011;74969;44.836;-0.586;2024-03-08T05:10:22;3.90;;;1.80;;
84738;SDS011;74969;44.836;-0.586;2024-03-08T05:12:47;3.83;;;1.75;;
84738;SDS011;74969;44.836;-0.586;2024-03-08T05:15:13;5.80;;;1.90;;
84738;SDS011;74969;44.836;-0.586;2024-03-08T05:17:39;5.97;;;1.85;;
84738;SDS011;74969;44.836;-0.586;2024-03-08T05:20:05;2.45;;;1.50;;
84738;SDS011;74969;44.836;-0.586;2024-03-08T05:22:36;5.05;;;1.70;;
84738;SDS011;74969;44.836;-0.586;2024-03-08T05:25:02;4.43;;;1.60;;
84738;SDS011;74969;44.836;-0.586;2024-03-08T05:27:27;3.22;;;1.90;;
84738;SDS011;74969;44.836;-0.586;2024-03-08T05:29:53;5.00;;;1.73;;
84738;SDS011;74969;44.836;-0.586;2024-03-08T05:32:19;4.50;;;2.00;;
84738;SDS011;74969;44.836;-0.586;2024-03-08T05:34:45;6.30;;;2.08;;
84738;SDS011;74969;44.836;-0.586;2024-03-08T05:37:10;6.15;;;1.88;;
84738;SDS011;74969;44.836;-0.586;2024-03-08T05:39:36;3.33;;;2.05;;
84738;SDS011;74969;44.836;-0.586;2024-03-08T05:42:02;3.63;;;2.13;;
84738;SDS011;74969;44.836;-0.586;2024-03-08T05:44:27;3.90;;;2.25;;
84738;SDS011;74969;44.836;-0.586;2024-03-08T05:46:56;4.22;;;1.98;;
84738;SDS011;74969;44.836;-0.586;2024-03-08T05:49:22;3.77;;;2.30;;
84738;SDS011;74969;44.836;-0.586;2024-03-08T05:51:50;2.50;;;1.70;;
84738;SDS011;74969;44.836;-0.586;2024-03-08T05:54:16;5.57;;;1.80;;
84738;SDS011;74969;44.836;-0.586;2024-03-08T05:56:42;6.40;;;1.92;;
84738;SDS011;74969;44.836;-0.586;2024-03-08T05:59:09;5.40;;;1.80;;
84738;SDS011;74969;44.836;-0.586;2024-03-08T06:01:35;4.27;;;1.90;;
84738;SDS011;74969;44.836;-0.586;2024-03-08T06:04:01;3.25;;;1.63;;
84738;SDS011;74969;44.836;-0.586;2024-03-08T06:06:28;7.80;;;1.90;;
84738;SDS011;74969;44.836;-0.586;2024-03-08T06:08:54;5.18;;;2.17;;
84738;SDS011;74969;44.836;-0.586;2024-03-08T06:11:23;6.28;;;2.50;;
84738;SDS011;74969;44.836;-0.586;2024-03-08T06:13:51;9.20;;;2.55;;
84738;SDS011;74969;44.836;-0.586;2024-03-08T06:16:20;5.25;;;1.98;;
84738;SDS011;74969;44.836;-0.586;2024-03-08T06:18:46;6.85;;;2.30;;
84738;SDS011;74969;44.836;-0.586;2024-03-08T06:21:11;4.83;;;2.17;;
84738;SDS011;74969;44.836;-0.586;2024-03-08T06:23:38;5.63;;;2.97;;
84738;SDS011;74969;44.836;-0.586;2024-03-08T06:26:09;4.50;;;2.05;;
84738;SDS011;74969;44.836;-0.586;2024-03-08T06:28:35;5.77;;;2.30;;
84738;SDS011;74969;44.836;-0.586;2024-03-08T06:31:01;5.47;;;2.17;;
84738;SDS011;74969;44.836;-0.586;2024-03-08T06:33:27;7.07;;;2.30;;
84738;SDS011;74969;44.836;-0.586;2024-03-08T06:35:54;5.40;;;2.70;;
84738;SDS011;74969;44.836;-0.586;2024-03-08T06:38:22;5.45;;;2.20;;
84738;SDS011;74969;44.836;-0.586;2024-03-08T06:40:52;3.17;;;2.13;;
84738;SDS011;74969;44.836;-0.586;2024-03-08T06:43:18;4.97;;;2.70;;
84738;SDS011;74969;44.836;-0.586;2024-03-08T06:45:47;3.25;;;2.00;;
84738;SDS011;74969;44.836;-0.586;2024-03-08T06:48:16;4.50;;;2.07;;
84738;SDS011;74969;44.836;-0.586;2024-03-08T06:50:46;3.97;;;2.40;;
84738;SDS011;74969;44.836;-0.586;2024-03-08T06:53:12;3.38;;;2.17;;
84738;SDS011;74969;44.836;-0.586;2024-03-08T06:55:38;7.25;;;2.72;;
84738;SDS011;74969;44.836;-0.586;2024-03-08T06:58:04;5.20;;;2.22;;
84738;SDS011;74969;44.836;-0.586;2024-03-08T07:00:31;6.00;;;2.40;;
84738;SDS011;74969;44.836;-0.586;2024-03-08T07:02:58;8.77;;;2.40;;
84738;SDS011;74969;44.836;-0.586;2024-03-08T07:05:27;3.17;;;2.00;;
84738;SDS011;74969;44.836;-0.586;2024-03-08T07:07:53;5.43;;;1.98;;
84738;SDS011;74969;44.836;-0.586;2024-03-08T07:10:20;3.90;;;2.10;;
84738;SDS011;74969;44.836;-0.586;2024-03-08T07:12:49;6.88;;;2.13;;
84738;SDS011;74969;44.836;-0.586;2024-03-08T07:15:15;3.63;;;1.92;;
84738;SDS011;74969;44.836;-0.586;2024-03-08T07:17:41;6.28;;;1.80;;
84738;SDS011;74969;44.836;-0.586;2024-03-08T07:20:09;6.20;;;2.00;;
84738;SDS011;74969;44.836;-0.586;2024-03-08T07:22:37;5.63;;;2.22;;
84738;SDS011;74969;44.836;-0.586;2024-03-08T07:25:06;4.40;;;1.90;;
84738;SDS011;74969;44.836;-0.586;2024-03-08T07:27:33;7.57;;;2.17;;
84738;SDS011;74969;44.836;-0.586;2024-03-08T07:30:04;5.32;;;2.40;;
84738;SDS011;74969;44.836;-0.586;2024-03-08T07:32:30;5.67;;;2.30;;
84738;SDS011;74969;44.836;-0.586;2024-03-08T07:34:56;8.23;;;2.33;;
84738;SDS011;74969;44.836;-0.586;2024-03-08T07:37:23;4.88;;;2.13;;
84738;SDS011;74969;44.836;-0.586;2024-03-08T07:39:49;5.63;;;2.83;;
84738;SDS011;74969;44.836;-0.586;2024-03-08T07:42:15;6.68;;;2.55;;
84738;SDS011;74969;44.836;-0.586;2024-03-08T07:44:41;2.58;;;2.15;;
84738;SDS011;74969;44.836;-0.586;2024-03-08T07:47:08;3.90;;;2.40;;
84738;SDS011;74969;44.836;-0.586;2024-03-08T07:49:35;4.40;;;2.20;;
84738;SDS011;74969;44.836;-0.586;2024-03-08T07:52:02;5.13;;;2.80;;
84738;SDS011;74969;44.836;-0.586;2024-03-08T07:54:29;5.15;;;2.75;;
84738;SDS011;74969;44.836;-0.586;2024-03-08T07:56:55;4.25;;;1.95;;
84738;SDS011;74969;44.836;-0.586;2024-03-08T07:59:21;4.47;;;1.60;;
84738;SDS011;74969;44.836;-0.586;2024-03-08T08:01:47;4.60;;;1.60;;
84738;SDS011;74969;44.836;-0.586;2024-03-08T08:04:13;3.25;;;2.22;;
84738;SDS011;74969;44.836;-0.586;2024-03-08T08:06:40;7.13;;;2.15;;
84738;SDS011;74969;44.836;-0.586;2024-03-08T08:09:08;6.17;;;2.80;;
84738;SDS011;74969;44.836;-0.586;2024-03-08T08:11:40;7.43;;;3.10;;
84738;SDS011;74969;44.836;-0.586;2024-03-08T08:14:08;9.07;;;3.42;;
84738;SDS011;74969;44.836;-0.586;2024-03-08T08:16:35;4.13;;;2.50;;
84738;SDS011;74969;44.836;-0.586;2024-03-08T08:19:06;6.13;;;2.70;;
84738;SDS011;74969;44.836;-0.586;2024-03-08T08:21:35;8.23;;;3.23;;
84738;SDS011;74969;44.836;-0.586;2024-03-08T08:24:04;8.07;;;3.13;;
84738;SDS011;74969;44.836;-0.586;2024-03-08T08:26:30;6.55;;;3.03;;
84738;SDS011;74969;44.836;-0.586;2024-03-08T08:28:55;5.53;;;3.15;;
84738;SDS011;74969;44.836;-0.586;2024-03-08T08:31:21;4.40;;;2.67;;
84738;SDS011;74969;44.836;-0.586;2024-03-08T08:33:47;6.90;;;2.47;;
84738;SDS011;74969;44.836;-0.586;2024-03-08T08:36:14;5.70;;;2.35;;
84738;SDS011;74969;44.836;-0.586;2024-03-08T08:38:40;5.50;;;2.65;;
84738;SDS011;74969;44.836;-0.586;2024-03-08T08:41:09;4.27;;;1.83;;
84738;SDS011;74969;44.836;-0.586;2024-03-08T08:43:36;4.28;;;1.90;;
84738;SDS011;74969;44.836;-0.586;2024-03-08T08:46:02;4.50;;;1.88;;
84738;SDS011;74969;44.836;-0.586;2024-03-08T08:48:28;5.50;;;2.40;;
84738;SDS011;74969;44.836;-0.586;2024-03-08T08:50:54;5.50;;;2.33;;
84738;SDS011;74969;44.836;-0.586;2024-03-08T08:53:20;4.50;;;2.22;;
84738;SDS011;74969;44.836;-0.586;2024-03-08T08:55:47;3.00;;;1.40;;
84738;SDS011;74969;44.836;-0.586;2024-03-08T08:58:12;4.22;;;1.92;;
84738;SDS011;74969;44.836;-0.586;2024-03-08T09:00:39;5.23;;;1.77;;
84738;SDS011;74969;44.836;-0.586;2024-03-08T09:03:05;2.85;;;1.25;;
84738;SDS011;74969;44.836;-0.586;2024-03-08T09:05:32;3.10;;;1.52;;
84738;SDS011;74969;44.836;-0.586;2024-03-08T09:07:59;4.32;;;1.50;;
84738;SDS011;74969;44.836;-0.586;2024-03-08T09:10:25;3.47;;;1.40;;
84738;SDS011;74969;44.836;-0.586;2024-03-08T09:12:52;5.63;;;1.57;;
84738;SDS011;74969;44.836;-0.586;2024-03-08T09:15:18;3.03;;;1.48;;
84738;SDS011;74969;44.836;-0.586;2024-03-08T09:17:45;4.13;;;1.85;;
84738;SDS011;74969;44.836;-0.586;2024-03-08T09:20:13;4.60;;;1.40;;
84738;SDS011;74969;44.836;-0.586;2024-03-08T09:22:40;3.57;;;1.20;;
84738;SDS011;74969;44.836;-0.586;2024-03-08T09:25:09;4.30;;;1.45;;
84738;SDS011;74969;44.836;-0.586;2024-03-08T09:27:35;3.17;;;1.30;;
84738;SDS011;74969;44.836;-0.586;2024-03-08T09:30:01;3.07;;;1.80;;
84738;SDS011;74969;44.836;-0.586;2024-03-08T09:32:27;7.78;;;1.55;;
84738;SDS011;74969;44.836;-0.586;2024-03-08T09:34:53;2.58;;;1.33;;
84738;SDS011;74969;44.836;-0.586;2024-03-08T09:37:19;3.07;;;1.50;;
84738;SDS011;74969;44.836;-0.586;2024-03-08T09:39:44;5.75;;;1.92;;
84738;SDS011;74969;44.836;-0.586;2024-03-08T09:42:11;4.15;;;1.30;;
84738;SDS011;74969;44.836;-0.586;2024-03-08T09:44:43;6.43;;;2.13;;
84738;SDS011;74969;44.836;-0.586;2024-03-08T09:47:15;2.70;;;1.35;;
84738;SDS011;74969;44.836;-0.586;2024-03-08T09:49:42;2.55;;;1.40;;
84738;SDS011;74969;44.836;-0.586;2024-03-08T09:52:08;3.73;;;1.60;;
84738;SDS011;74969;44.836;-0.586;2024-03-08T09:54:35;2.90;;;1.98;;
84738;SDS011;74969;44.836;-0.586;2024-03-08T09:57:02;3.85;;;1.60;;
84738;SDS011;74969;44.836;-0.586;2024-03-08T09:59:29;4.88;;;1.70;;
84738;SDS011;74969;44.836;-0.586;2024-03-08T10:01:58;2.30;;;1.80;;
84738;SDS011;74969;44.836;-0.586;2024-03-08T10:04:24;3.45;;;2.05;;
84738;SDS011;74969;44.836;-0.586;2024-03-08T10:06:53;4.13;;;1.90;;
84738;SDS011;74969;44.836;-0.586;2024-03-08T10:09:19;3.63;;;1.92;;
84738;SDS011;74969;44.836;-0.586;2024-03-08T10:11:45;3.63;;;2.05;;
84738;SDS011;74969;44.836;-0.586;2024-03-08T10:14:11;3.77;;;2.00;;
84738;SDS011;74969;44.836;-0.586;2024-03-08T10:16:40;5.85;;;2.20;;
84738;SDS011;74969;44.836;-0.586;2024-03-08T10:19:06;4.28;;;2.03;;
84738;SDS011;74969;44.836;-0.586;2024-03-08T10:21:33;3.43;;;2.40;;
84738;SDS011;74969;44.836;-0.586;2024-03-08T10:23:58;4.05;;;2.75;;
84738;SDS011;74969;44.836;-0.586;2024-03-08T10:26:24;3.25;;;2.55;;
84738;SDS011;74969;44.836;-0.586;2024-03-08T10:28:51;4.27;;;2.33;;
84738;SDS011;74969;44.836;-0.586;2024-03-08T10:31:22;3.50;;;2.30;;
84738;SDS011;74969;44.836;-0.586;2024-03-08T10:33:48;3.58;;;2.53;;
84738;SDS011;74969;44.836;-0.586;2024-03-08T10:36:17;5.13;;;2.93;;
84738;SDS011;74969;44.836;-0.586;2024-03-08T10:38:44;5.28;;;2.60;;
84738;SDS011;74969;44.836;-0.586;2024-03-08T10:41:12;3.75;;;2.10;;
84738;SDS011;74969;44.836;-0.586;2024-03-08T10:49:00;3.07;;;1.97;;
84738;SDS011;74969;44.836;-0.586;2024-03-08T10:51:29;3.35;;;1.50;;
84738;SDS011;74969;44.836;-0.586;2024-03-08T10:53:57;4.18;;;2.10;;
84738;SDS011;74969;44.836;-0.586;2024-03-08T10:56:24;4.15;;;1.67;;
84738;SDS011;74969;44.836;-0.586;2024-03-08T10:58:52;4.43;;;1.25;;
84738;SDS011;74969;44.836;-0.586;2024-03-08T11:01:20;2.97;;;1.60;;
84738;SDS011;74969;44.836;-0.586;2024-03-08T11:03:47;4.78;;;2.30;;
84738;SDS011;74969;44.836;-0.586;2024-03-08T11:09:00;4.43;;;1.52;;
84738;SDS011;74969;44.836;-0.586;2024-03-08T11:11:30;5.47;;;1.47;;
84738;SDS011;74969;44.836;-0.586;2024-03-08T11:13:57;2.28;;;1.45;;
84738;SDS011;74969;44.836;-0.586;2024-03-08T11:19:05;2.22;;;1.00;;
84738;SDS011;74969;44.836;-0.586;2024-03-08T11:21:56;3.08;;;1.30;;
84738;SDS011;74969;44.836;-0.586;2024-03-08T11:24:23;3.93;;;1.53;;
84738;SDS011;74969;44.836;-0.586;2024-03-08T11:26:48;3.85;;;1.40;;
84738;SDS011;74969;44.836;-0.586;2024-03-08T11:32:14;4.03;;;1.52;;
84738;SDS011;74969;44.836;-0.586;2024-03-08T11:34:42;4.13;;;1.90;;
84738;SDS011;74969;44.836;-0.586;2024-03-08T11:37:11;4.35;;;1.80;;
84738;SDS011;74969;44.836;-0.586;2024-03-08T11:39:39;3.35;;;1.80;;
84738;SDS011;74969;44.836;-0.586;2024-03-08T11:42:05;3.25;;;1.23;;
84738;SDS011;74969;44.836;-0.586;2024-03-08T11:44:31;2.80;;;1.10;;
84738;SDS011;74969;44.836;-0.586;2024-03-08T11:46:57;2.63;;;1.30;;
84738;SDS011;74969;44.836;-0.586;2024-03-08T11:49:23;4.80;;;1.85;;
84738;SDS011;74969;44.836;-0.586;2024-03-08T11:51:52;3.57;;;1.80;;
84738;SDS011;74969;44.836;-0.586;2024-03-08T11:54:21;2.47;;;1.27;;
84738;SDS011;74969;44.836;-0.586;2024-03-08T11:56:47;2.88;;;1.60;;
84738;SDS011;74969;44.836;-0.586;2024-03-08T11:59:16;4.22;;;1.80;;
84738;SDS011;74969;44.836;-0.586;2024-03-08T12:01:42;3.10;;;1.70;;
84738;SDS011;74969;44.836;-0.586;2024-03-08T12:04:11;3.10;;;1.73;;
84738;SDS011;74969;44.836;-0.586;2024-03-08T12:06:38;3.72;;;1.10;;
84738;SDS011;74969;44.836;-0.586;2024-03-08T12:09:09;4.65;;;1.27;;
84738;SDS011;74969;44.836;-0.586;2024-03-08T12:11:38;2.40;;;1.30;;
84738;SDS011;74969;44.836;-0.586;2024-03-08T12:14:04;2.63;;;1.50;;
84738;SDS011;74969;44.836;-0.586;2024-03-08T12:16:31;2.20;;;1.20;;
84738;SDS011;74969;44.836;-0.586;2024-03-08T12:18:57;2.63;;;1.20;;
84738;SDS011;74969;44.836;-0.586;2024-03-08T12:21:25;2.83;;;1.45;;
84738;SDS011;74969;44.836;-0.586;2024-03-08T12:26:36;2.33;;;1.60;;
84738;SDS011;74969;44.836;-0.586;2024-03-08T12:29:19;2.10;;;1.50;;
84738;SDS011;74969;44.836;-0.586;2024-03-08T12:31:54;1.42;;;0.85;;
84738;SDS011;74969;44.836;-0.586;2024-03-08T12:34:23;2.92;;;1.13;;
84738;SDS011;74969;44.836;-0.586;2024-03-08T12:36:50;2.25;;;1.08;;
84738;SDS011;74969;44.836;-0.586;2024-03-08T12:39:19;1.90;;;0.83;;
84738;SDS011;74969;44.836;-0.586;2024-03-08T12:41:55;2.72;;;1.25;;
84738;SDS011;74969;44.836;-0.586;2024-03-08T12:44:27;2.90;;;1.58;;
84738;SDS011;74969;44.836;-0.586;2024-03-08T12:46:53;4.15;;;2.17;;
84738;SDS011;74969;44.836;-0.586;2024-03-08T12:49:19;2.10;;;1.57;;
84738;SDS011;74969;44.836;-0.586;2024-03-08T12:51:47;2.20;;;1.30;;
84738;SDS011;74969;44.836;-0.586;2024-03-08T12:54:13;3.30;;;1.50;;
84738;SDS011;74969;44.836;-0.586;2024-03-08T12:56:39;4.47;;;1.30;;
84738;SDS011;74969;44.836;-0.586;2024-03-08T12:59:06;3.60;;;1.23;;
84738;SDS011;74969;44.836;-0.586;2024-03-08T13:01:33;2.05;;;1.00;;
84738;SDS011;74969;44.836;-0.586;2024-03-08T13:04:02;2.03;;;0.73;;
84738;SDS011;74969;44.836;-0.586;2024-03-08T13:06:29;4.38;;;1.13;;
84738;SDS011;74969;44.836;-0.586;2024-03-08T13:08:56;2.03;;;0.73;;
84738;SDS011;74969;44.836;-0.586;2024-03-08T13:11:23;1.08;;;0.77;;
84738;SDS011;74969;44.836;-0.586;2024-03-08T13:13:49;2.60;;;1.48;;
84738;SDS011;74969;44.836;-0.586;2024-03-08T13:16:15;3.30;;;1.15;;
84738;SDS011;74969;44.836;-0.586;2024-03-08T13:18:43;2.67;;;1.30;;
84738;SDS011;74969;44.836;-0.586;2024-03-08T13:21:09;3.40;;;1.30;;
84738;SDS011;74969;44.836;-0.586;2024-03-08T13:23:40;2.40;;;1.30;;
84738;SDS011;74969;44.836;-0.586;2024-03-08T13:26:10;2.47;;;1.50;;
84738;SDS011;74969;44.836;-0.586;2024-03-08T13:28:43;2.20;;;1.50;;
84738;SDS011;74969;44.836;-0.586;2024-03-08T13:31:11;2.58;;;1.35;;
84738;SDS011;74969;44.836;-0.586;2024-03-08T13:33:38;1.55;;;1.25;;
84738;SDS011;74969;44.836;-0.586;2024-03-08T13:36:05;1.80;;;1.25;;
84738;SDS011;74969;44.836;-0.586;2024-03-08T13:38:32;2.08;;;1.20;;
84738;SDS011;74969;44.836;-0.586;2024-03-08T13:40:58;2.30;;;1.30;;
84738;SDS011;74969;44.836;-0.586;2024-03-08T13:43:24;2.80;;;1.13;;
84738;SDS011;74969;44.836;-0.586;2024-03-08T13:45:50;2.03;;;1.17;;
84738;SDS011;74969;44.836;-0.586;2024-03-08T13:48:17;1.77;;;1.00;;
84738;SDS011;74969;44.836;-0.586;2024-03-08T13:50:43;3.13;;;1.00;;
84738;SDS011;74969;44.836;-0.586;2024-03-08T13:53:09;3.03;;;0.98;;
84738;SDS011;74969;44.836;-0.586;2024-03-08T13:55:35;2.65;;;1.27;;
84738;SDS011;74969;44.836;-0.586;2024-03-08T13:58:01;3.20;;;1.10;;
84738;SDS011;74969;44.836;-0.586;2024-03-08T14:00:27;3.20;;;1.17;;
84738;SDS011;74969;44.836;-0.586;2024-03-08T14:02:58;2.47;;;0.90;;
84738;SDS011;74969;44.836;-0.586;2024-03-08T14:05:24;4.38;;;1.40;;
84738;SDS011;74969;44.836;-0.586;2024-03-08T14:07:50;1.55;;;0.95;;
84738;SDS011;74969;44.836;-0.586;2024-03-08T14:10:16;2.47;;;1.27;;
84738;SDS011;74969;44.836;-0.586;2024-03-08T14:12:44;3.67;;;1.30;;
84738;SDS011;74969;44.836;-0.586;2024-03-08T14:15:13;3.23;;;1.50;;
84738;SDS011;74969;44.836;-0.586;2024-03-08T14:17:38;3.13;;;1.77;;
84738;SDS011;74969;44.836;-0.586;2024-03-08T14:20:05;2.97;;;1.07;;
84738;SDS011;74969;44.836;-0.586;2024-03-08T14:22:31;2.70;;;1.30;;
84738;SDS011;74969;44.836;-0.586;2024-03-08T14:24:57;1.83;;;1.00;;
84738;SDS011;74969;44.836;-0.586;2024-03-08T14:27:23;3.43;;;1.30;;
84738;SDS011;74969;44.836;-0.586;2024-03-08T14:29:49;2.70;;;1.13;;
84738;SDS011;74969;44.836;-0.586;2024-03-08T14:32:14;2.87;;;0.90;;
84738;SDS011;74969;44.836;-0.586;2024-03-08T14:34:40;2.38;;;1.10;;
84738;SDS011;74969;44.836;-0.586;2024-03-08T14:37:06;1.83;;;1.10;;
84738;SDS011;74969;44.836;-0.586;2024-03-08T14:39:36;2.42;;;0.93;;
84738;SDS011;74969;44.836;-0.586;2024-03-08T14:42:02;3.65;;;1.20;;
84738;SDS011;74969;44.836;-0.586;2024-03-08T14:44:28;2.85;;;1.20;;
84738;SDS011;74969;44.836;-0.586;2024-03-08T14:46:57;3.78;;;1.00;;
84738;SDS011;74969;44.836;-0.586;2024-03-08T14:49:24;19.63;;;2.83;;